Accueil
METAR-TAF:

METAR-TAF

Aéroports :

Aéroport de Bordeaux-Mérignac

Bordeaux, France

latitude: 44-50N, longitude: 000-42W, altitude: 49 m

Observation

Le bulletin a été fait il y a 38 minutes, à 22:00 UTC
Vent 6 kt de nord/nord-est
Température 7°C
Humidité 70%
Pression 1021 hPa
Visibilité 10 km ou plus
pas de nuages en-dessous de 1500 mètres et pas de cumulonimbus.

METAR: LFBD 082200Z AUTO 03006KT CAVOK 07/02 Q1021 NOSIG

Heure: 23:38 (22:38 UTC)

Prévision

Le bulletin a été fait il y a 5 heures et 38 minutes, à 17:00 UTC
Prévision valable du 08 à 18 UTC au 09 à 24 UTC
Vent 5 kt de nord
Visibilité 10 km ou plus
pas de nuages en-dessous de 1500 mètres et pas de cumulonimbus.

TAF: LFBD 081700Z 0818/0924 36005KT CAVOK TX12/0915Z TN01/0906Z

Observations et prévisions météorologiques de plus de 4000 aéroports (messages METAR et TAF).

Les stations disponibles sont représentées par des disques jaunes et rouges sur la carte.

Passer la souris dessus pour voir le nom de la station.

Cliquer dessus pour voir les observations et prévisions météorologiques.

Pour changer de carte: cliquez sur les boutons verts avec une croix noire pour zoomer, sur le bouton vert avec un tiret pour effectuer un zoom arrière, ou sur les flèches vertes pour les cartes adjacentes.


METAR-TAF: